Time;durP1;ratioP1;P1;durP2;ratioP2;P2;SDS_P1;SDS_P2;PMS_P1;PMS_P2;Temp;Humidity;BMP_temperature;BMP_pressure;BME280_temperature;BME280_humidity;BME280_pressure;Samples;Min_cycle;Max_cycle;Signal;HPM_P1;HPM_P2
2023/10/11 00:02:58;;;;;;;11.70;3.90;;;;;;;;;;4981113;28;20062;-77
2023/10/11 00:05:24;;;;;;;15.93;3.67;;;;;;;;;;4981379;28;20416;-77
2023/10/11 00:07:54;;;;;;;14.68;4.22;;;;;;;;;;4997250;28;20117;-77
2023/10/11 00:10:22;;;;;;;15.13;4.43;;;;;;;;;;4982312;28;20062;-77
2023/10/11 00:12:50;;;;;;;12.00;3.60;;;;;;;;;;4981200;28;20046;-77
2023/10/11 00:15:16;;;;;;;11.40;3.85;;;;;;;;;;4982671;28;20137;-76
2023/10/11 00:17:45;;;;;;;11.95;3.97;;;;;;;;;;4981301;28;20053;-76
2023/10/11 00:20:19;;;;;;;11.25;4.28;;;;;;;;;;4981330;28;20133;-77
2023/10/11 00:22:45;;;;;;;10.98;3.40;;;;;;;;;;4979873;28;21200;-77
2023/10/11 00:25:23;;;;;;;12.48;4.03;;;;;;;;;;4981210;28;20057;-77
2023/10/11 00:27:52;;;;;;;10.15;3.28;;;;;;;;;;4964754;28;20141;-77
2023/10/11 00:30:18;;;;;;;16.38;3.78;;;;;;;;;;4989735;28;20042;-76
2023/10/11 00:32:47;;;;;;;15.38;3.88;;;;;;;;;;4980602;28;20041;-76
2023/10/11 00:35:18;;;;;;;14.10;3.40;;;;;;;;;;4980316;28;20050;-76
2023/10/11 00:37:49;;;;;;;9.82;3.97;;;;;;;;;;4981160;28;20038;-76
2023/10/11 00:40:25;;;;;;;14.27;3.92;;;;;;;;;;4980967;28;20050;-76
2023/10/11 00:42:51;;;;;;;10.55;4.03;;;;;;;;;;4981225;28;20044;-76
2023/10/11 00:45:17;;;;;;;9.85;4.18;;;;;;;;;;4982463;28;20050;-76
2023/10/11 00:47:45;;;;;;;13.63;3.95;;;;;;;;;;4981769;28;20608;-77
2023/10/11 00:50:15;;;;;;;14.40;4.25;;;;;;;;;;4981125;28;20046;-77
2023/10/11 00:52:45;;;;;;;17.45;4.22;;;;;;;;;;4980532;28;20050;-77
2023/10/11 00:55:23;;;;;;;12.13;3.83;;;;;;;;;;4980531;28;20056;-77
2023/10/11 00:57:50;;;;;;;13.13;4.32;;;;;;;;;;4981486;28;20050;-77
2023/10/11 01:00:21;;;;;;;13.95;3.80;;;;;;;;;;4981351;28;20157;-77
2023/10/11 01:02:48;;;;;;;10.93;3.72;;;;;;;;;;4983421;28;21184;-77
2023/10/11 01:05:22;;;;;;;11.43;3.67;;;;;;;;;;4982584;28;20093;-77
2023/10/11 01:07:51;;;;;;;14.15;4.30;;;;;;;;;;4981672;28;20053;-77
2023/10/11 01:10:23;;;;;;;10.70;3.83;;;;;;;;;;4981442;28;20050;-77
2023/10/11 01:12:49;;;;;;;12.65;3.88;;;;;;;;;;4983422;28;20072;-76
2023/10/11 01:15:19;;;;;;;14.15;4.10;;;;;;;;;;4965993;28;20106;-75
2023/10/11 01:17:45;;;;;;;16.75;4.65;;;;;;;;;;4981923;28;20046;-76
2023/10/11 01:20:13;;;;;;;13.68;4.65;;;;;;;;;;4982777;28;20050;-75
2023/10/11 01:22:45;;;;;;;18.70;4.30;;;;;;;;;;4983688;28;20054;-75
2023/10/11 01:25:21;;;;;;;14.02;4.18;;;;;;;;;;4984760;28;20161;-76
2023/10/11 01:27:47;;;;;;;13.48;4.07;;;;;;;;;;4986807;28;20050;-76
2023/10/11 01:30:14;;;;;;;12.30;4.22;;;;;;;;;;5002887;28;20047;-76
2023/10/11 01:32:42;;;;;;;16.08;4.07;;;;;;;;;;5001762;28;20045;-77
2023/10/11 01:35:13;;;;;;;17.05;4.38;;;;;;;;;;5000659;28;20069;-75
2023/10/11 01:37:42;;;;;;;17.35;4.85;;;;;;;;;;5001370;28;20046;-76
2023/10/11 01:40:20;;;;;;;8.38;3.83;;;;;;;;;;5010207;28;20111;-76
2023/10/11 01:42:52;;;;;;;14.13;4.40;;;;;;;;;;5003158;28;20042;-76
2023/10/11 01:45:23;;;;;;;14.15;4.07;;;;;;;;;;4994646;28;20129;-76
2023/10/11 01:47:50;;;;;;;12.65;4.50;;;;;;;;;;5020311;28;20090;-75
2023/10/11 01:50:17;;;;;;;15.85;4.30;;;;;;;;;;5004082;28;20058;-76
2023/10/11 01:52:43;;;;;;;16.50;4.00;;;;;;;;;;4980424;28;20378;-76
2023/10/11 01:55:13;;;;;;;11.75;4.40;;;;;;;;;;4981058;28;20042;-76
2023/10/11 01:57:45;;;;;;;10.20;3.65;;;;;;;;;;4995476;28;20056;-76
2023/10/11 02:00:15;;;;;;;12.93;3.88;;;;;;;;;;4978186;28;20713;-76
2023/10/11 02:02:47;;;;;;;9.35;3.22;;;;;;;;;;4994726;28;20058;-77
2023/10/11 02:05:14;;;;;;;13.82;3.47;;;;;;;;;;4979446;28;20475;-76
2023/10/11 02:07:40;;;;;;;9.85;3.65;;;;;;;;;;4980079;28;20062;-76
2023/10/11 02:10:08;;;;;;;9.73;3.90;;;;;;;;;;4980589;28;20054;-76
2023/10/11 02:12:35;;;;;;;13.05;3.80;;;;;;;;;;4964798;28;20057;-76
2023/10/11 02:15:07;;;;;;;6.95;3.40;;;;;;;;;;4979548;28;20065;-76
2023/10/11 02:17:37;;;;;;;10.30;3.70;;;;;;;;;;4978389;28;20212;-76
2023/10/11 02:20:14;;;;;;;16.98;3.65;;;;;;;;;;4978767;28;20499;-76
2023/10/11 02:22:44;;;;;;;13.57;3.47;;;;;;;;;;4978885;28;20100;-76
2023/10/11 02:25:13;;;;;;;17.65;3.72;;;;;;;;;;4978616;28;20054;-76
2023/10/11 02:27:39;;;;;;;9.15;3.45;;;;;;;;;;4961961;28;20096;-76
2023/10/11 02:30:07;;;;;;;7.80;3.63;;;;;;;;;;4979975;28;20046;-76
2023/10/11 02:32:38;;;;;;;9.18;3.70;;;;;;;;;;4979048;28;20104;-76
2023/10/11 02:35:06;;;;;;;10.88;3.60;;;;;;;;;;4978089;28;20062;-76
2023/10/11 02:37:35;;;;;;;10.30;3.75;;;;;;;;;;4977669;28;20149;-76
2023/10/11 02:40:00;;;;;;;10.57;3.78;;;;;;;;;;4962915;28;20130;-76
2023/10/11 02:42:26;;;;;;;12.10;3.95;;;;;;;;;;4979800;28;20053;-76
2023/10/11 02:44:51;;;;;;;15.25;3.80;;;;;;;;;;4977029;28;20050;-76
2023/10/11 02:47:22;;;;;;;7.53;4.00;;;;;;;;;;4994314;28;20518;-77
2023/10/11 02:49:51;;;;;;;7.60;3.38;;;;;;;;;;4994070;28;20093;-76
2023/10/11 02:52:18;;;;;;;14.13;4.10;;;;;;;;;;4994356;28;20042;-75
2023/10/11 02:54:46;;;;;;;11.82;4.13;;;;;;;;;;4976451;28;20057;-76
2023/10/11 02:57:21;;;;;;;14.68;3.80;;;;;;;;;;4978844;28;20050;-76
2023/10/11 02:59:50;;;;;;;11.10;3.60;;;;;;;;;;4979351;28;20177;-76
2023/10/11 03:02:16;;;;;;;13.85;4.65;;;;;;;;;;4978257;28;20182;-76
2023/10/11 03:04:43;;;;;;;13.13;3.75;;;;;;;;;;4976760;28;20148;-76
2023/10/11 03:07:21;;;;;;;16.45;4.68;;;;;;;;;;4993400;28;20049;-76
2023/10/11 03:09:47;;;;;;;9.85;3.90;;;;;;;;;;4974288;28;20042;-76
2023/10/11 03:12:19;;;;;;;12.68;3.88;;;;;;;;;;4977937;28;20121;-76
2023/10/11 03:14:46;;;;;;;10.20;4.53;;;;;;;;;;4993438;28;20038;-76
2023/10/11 03:17:16;;;;;;;14.60;4.32;;;;;;;;;;4960899;28;20038;-75
2023/10/11 03:19:43;;;;;;;10.32;3.35;;;;;;;;;;4978938;28;20069;-76
2023/10/11 03:22:21;;;;;;;11.88;3.75;;;;;;;;;;4977746;28;20473;-76
2023/10/11 03:24:53;;;;;;;9.10;3.97;;;;;;;;;;4977013;28;20112;-76
2023/10/11 03:27:20;;;;;;;6.72;3.92;;;;;;;;;;4978144;28;20086;-76
2023/10/11 03:29:46;;;;;;;10.73;3.90;;;;;;;;;;4978608;28;20124;-76
2023/10/11 03:32:11;;;;;;;11.07;3.97;;;;;;;;;;4978563;28;20561;-75
2023/10/11 03:34:36;;;;;;;18.05;4.15;;;;;;;;;;4978882;28;20046;-76
2023/10/11 03:37:10;;;;;;;11.20;4.28;;;;;;;;;;4982473;28;20054;-76
2023/10/11 03:42:13;;;;;;;12.02;4.00;;;;;;;;;;4981739;28;20057;-76
2023/10/11 03:44:40;;;;;;;15.48;4.75;;;;;;;;;;4981043;28;20492;-75
2023/10/11 03:47:14;;;;;;;11.77;4.22;;;;;;;;;;4981148;28;20693;-76
2023/10/11 03:52:09;;;;;;;10.85;3.72;;;;;;;;;;4983023;28;20046;-74
2023/10/11 03:54:36;;;;;;;11.10;3.50;;;;;;;;;;4981306;28;20189;-76
2023/10/11 03:57:04;;;;;;;12.30;3.75;;;;;;;;;;4982056;28;20495;-76
2023/10/11 03:59:38;;;;;;;9.40;4.00;;;;;;;;;;4982143;28;20044;-76
2023/10/11 04:02:03;;;;;;;11.73;4.10;;;;;;;;;;4981610;28;20142;-75
2023/10/11 04:04:29;;;;;;;12.07;4.05;;;;;;;;;;4982308;28;20042;-76
2023/10/11 04:07:01;;;;;;;10.20;3.85;;;;;;;;;;4980555;28;20066;-76
2023/10/11 04:12:03;;;;;;;12.02;3.72;;;;;;;;;;4982034;28;20530;-77
2023/10/11 04:14:39;;;;;;;14.65;4.00;;;;;;;;;;4982077;28;20045;-76
2023/10/11 04:19:51;;;;;;;9.45;4.15;;;;;;;;;;4982096;28;20120;-77
2023/10/11 04:22:23;;;;;;;11.25;4.13;;;;;;;;;;4980250;28;20050;-76
2023/10/11 04:24:49;;;;;;;9.57;3.78;;;;;;;;;;4980418;28;20038;-78
2023/10/11 04:29:50;;;;;;;10.00;3.97;;;;;;;;;;4981691;28;20081;-77
2023/10/11 04:35:24;;;;;;;12.57;3.72;;;;;;;;;;4980050;28;20057;-77
2023/10/11 04:37:54;;;;;;;8.70;3.85;;;;;;;;;;4981704;28;20105;-78
2023/10/11 04:40:35;;;;;;;13.85;3.88;;;;;;;;;;4981831;28;20046;-77
2023/10/11 04:43:05;;;;;;;8.50;3.53;;;;;;;;;;4979369;28;20058;-78
2023/10/11 04:45:44;;;;;;;11.40;3.60;;;;;;;;;;4981503;28;20908;-78
2023/10/11 04:48:29;;;;;;;11.23;3.58;;;;;;;;;;4982422;28;20054;-78
2023/10/11 04:51:06;;;;;;;15.32;3.78;;;;;;;;;;4979113;28;20088;-79
2023/10/11 04:53:47;;;;;;;14.65;3.67;;;;;;;;;;4981874;28;20046;-78
2023/10/11 04:59:05;;;;;;;10.95;3.80;;;;;;;;;;4983116;28;20074;-77
2023/10/11 05:01:58;;;;;;;8.77;3.88;;;;;;;;;;4982578;28;20429;-76
2023/10/11 05:04:28;;;;;;;9.77;3.05;;;;;;;;;;4982307;28;20105;-75
2023/10/11 05:06:55;;;;;;;12.68;3.83;;;;;;;;;;4978067;28;20149;-75
2023/10/11 05:09:29;;;;;;;11.30;3.90;;;;;;;;;;4978316;28;21042;-74
2023/10/11 05:14:29;;;;;;;14.98;3.72;;;;;;;;;;4980531;28;20042;-74
2023/10/11 05:16:59;;;;;;;12.93;3.83;;;;;;;;;;4979043;28;20081;-75
2023/10/11 05:19:34;;;;;;;8.38;2.80;;;;;;;;;;4979357;28;20081;-75
2023/10/11 05:22:01;;;;;;;21.65;3.92;;;;;;;;;;4948326;28;20517;-76
2023/10/11 05:27:04;;;;;;;9.65;3.88;;;;;;;;;;4980013;28;20120;-76
2023/10/11 05:29:36;;;;;;;13.43;3.42;;;;;;;;;;4980793;28;20042;-76
2023/10/11 05:32:20;;;;;;;;;;;;;;;;;;4981758;28;20065;-76
2023/10/11 05:51:26;;;;;;;11.20;3.38;;;;;;;;;;4992492;28;20527;-76
2023/10/11 05:53:55;;;;;;;12.05;3.85;;;;;;;;;;4979710;28;20038;-76
2023/10/11 05:56:21;;;;;;;13.50;4.05;;;;;;;;;;4963226;28;20137;-75
2023/10/11 05:58:49;;;;;;;7.95;3.30;;;;;;;;;;4979167;28;20138;-78
2023/10/11 06:01:22;;;;;;;12.80;3.75;;;;;;;;;;4980625;28;20058;-78
2023/10/11 06:03:51;;;;;;;11.48;4.07;;;;;;;;;;4981673;28;20077;-78
2023/10/11 06:06:23;;;;;;;13.45;3.75;;;;;;;;;;4980245;28;20046;-76
2023/10/11 06:08:53;;;;;;;10.70;3.38;;;;;;;;;;4978836;28;20133;-76
2023/10/11 06:11:19;;;;;;;19.33;4.80;;;;;;;;;;4963751;28;20038;-76
2023/10/11 06:13:50;;;;;;;14.73;4.20;;;;;;;;;;4980098;28;20042;-78
2023/10/11 06:16:16;;;;;;;12.73;4.33;;;;;;;;;;4996995;28;20061;-79
2023/10/11 06:18:57;;;;;;;6.32;3.33;;;;;;;;;;4996848;28;20297;-80
2023/10/11 06:21:33;;;;;;;9.20;3.80;;;;;;;;;;4981434;28;20042;-78
2023/10/11 06:24:00;;;;;;;9.65;4.35;;;;;;;;;;4979022;28;20050;-78
2023/10/11 06:26:28;;;;;;;8.38;3.75;;;;;;;;;;4995365;28;20050;-76
2023/10/11 06:29:03;;;;;;;17.00;4.53;;;;;;;;;;4978662;28;20078;-77
2023/10/11 06:31:43;;;;;;;13.38;4.20;;;;;;;;;;4980388;28;20527;-77
2023/10/11 06:34:17;;;;;;;12.43;4.28;;;;;;;;;;4980697;28;20034;-77
2023/10/11 06:36:49;;;;;;;17.38;4.03;;;;;;;;;;4978479;28;20133;-77
2023/10/11 06:39:33;;;;;;;11.75;3.83;;;;;;;;;;4978980;28;20076;-75
2023/10/11 06:42:06;;;;;;;11.25;3.97;;;;;;;;;;4979272;28;20045;-77
2023/10/11 06:44:33;;;;;;;11.60;4.25;;;;;;;;;;4978272;28;20046;-76
2023/10/11 06:47:03;;;;;;;7.88;3.35;;;;;;;;;;4978575;28;20046;-75
2023/10/11 06:49:40;;;;;;;12.10;3.75;;;;;;;;;;4981200;28;20050;-76
2023/10/11 06:52:11;;;;;;;12.07;3.35;;;;;;;;;;4980671;28;20076;-75
2023/10/11 06:54:46;;;;;;;10.02;3.10;;;;;;;;;;4969331;28;20050;-75
2023/10/11 06:57:22;;;;;;;11.25;2.97;;;;;;;;;;4995719;28;20484;-75
2023/10/11 06:59:51;;;;;;;7.72;2.55;;;;;;;;;;4982834;28;20535;-77
2023/10/11 07:02:32;;;;;;;11.60;3.05;;;;;;;;;;4983667;28;20129;-77
2023/10/11 07:05:17;;;;;;;7.88;3.03;;;;;;;;;;4982993;28;20397;-76
2023/10/11 07:07:52;;;;;;;7.53;3.05;;;;;;;;;;4983321;28;20688;-76
2023/10/11 07:10:33;;;;;;;8.48;2.70;;;;;;;;;;4981562;28;20140;-76
2023/10/11 07:13:12;;;;;;;;;;;;;;;;;;4982579;28;20069;-76
2023/10/11 07:15:43;;;;;;;11.82;3.20;;;;;;;;;;4993991;28;20056;-74
2023/10/11 07:18:10;;;;;;;11.55;2.50;;;;;;;;;;4978026;28;20053;-77
2023/10/11 07:29:01;;;;;;;7.03;2.63;;;;;;;;;;4997013;28;20073;-77
2023/10/11 07:31:33;;;;;;;15.40;3.15;;;;;;;;;;4978832;28;20046;-76
2023/10/11 07:34:09;;;;;;;10.00;3.45;;;;;;;;;;4962211;28;20973;-77
2023/10/11 07:36:39;;;;;;;14.70;3.10;;;;;;;;;;4979274;28;20053;-77
2023/10/11 07:41:51;;;;;;;10.00;3.22;;;;;;;;;;4972658;28;20046;-76
2023/10/11 07:44:20;;;;;;;15.13;3.10;;;;;;;;;;4975508;28;20149;-76
2023/10/11 07:46:46;;;;;;;7.30;2.58;;;;;;;;;;4971852;28;20054;-76
2023/10/11 07:49:19;;;;;;;9.15;3.17;;;;;;;;;;4976552;28;20054;-77
2023/10/11 07:51:52;;;;;;;10.82;2.92;;;;;;;;;;4973705;28;20086;-78
2023/10/11 07:54:21;;;;;;;7.20;3.00;;;;;;;;;;4975286;28;20073;-78
2023/10/11 07:56:49;;;;;;;11.90;3.63;;;;;;;;;;4975585;28;20053;-78
2023/10/11 07:59:14;;;;;;;9.90;3.90;;;;;;;;;;4977043;28;20050;-78
2023/10/11 08:01:42;;;;;;;16.55;3.17;;;;;;;;;;4976729;28;20046;-78
2023/10/11 08:04:09;;;;;;;16.10;3.03;;;;;;;;;;4990303;28;20051;-79
2023/10/11 08:06:39;;;;;;;10.52;3.20;;;;;;;;;;4975328;28;20535;-78
2023/10/11 08:09:06;;;;;;;14.77;3.58;;;;;;;;;;4973416;28;20117;-78
2023/10/11 08:11:45;;;;;;;11.57;3.53;;;;;;;;;;4976302;28;20054;-78
2023/10/11 08:14:15;;;;;;;13.40;3.25;;;;;;;;;;4980151;28;20143;-78
2023/10/11 08:16:47;;;;;;;12.60;2.90;;;;;;;;;;4988710;28;20061;-78
2023/10/11 08:19:13;;;;;;;11.93;3.00;;;;;;;;;;4958538;28;20605;-77
2023/10/11 08:21:39;;;;;;;12.52;3.45;;;;;;;;;;4961426;28;20365;-77
2023/10/11 08:24:06;;;;;;;14.18;3.55;;;;;;;;;;4961560;28;20058;-76
2023/10/11 08:26:42;;;;;;;10.52;3.30;;;;;;;;;;4962826;28;20090;-77
2023/10/11 08:29:15;;;;;;;12.30;3.47;;;;;;;;;;4979393;28;20490;-77
2023/10/11 08:31:43;;;;;;;9.43;2.90;;;;;;;;;;4985871;28;20466;-77
2023/10/11 08:34:09;;;;;;;10.38;2.47;;;;;;;;;;4980580;28;20053;-78
2023/10/11 08:36:34;;;;;;;13.68;2.80;;;;;;;;;;4979994;28;20054;-77
2023/10/11 08:39:05;;;;;;;8.82;2.40;;;;;;;;;;4979696;28;20046;-76
2023/10/11 08:41:33;;;;;;;15.52;2.45;;;;;;;;;;4984426;28;20070;-78
2023/10/11 08:44:14;;;;;;;16.10;3.03;;;;;;;;;;4982623;28;20137;-77
2023/10/11 08:46:44;;;;;;;10.95;2.67;;;;;;;;;;4981454;28;20049;-80
2023/10/11 08:49:11;;;;;;;16.13;3.05;;;;;;;;;;4987937;28;20112;-78
2023/10/11 08:51:41;;;;;;;7.20;2.58;;;;;;;;;;4987706;28;20176;-78
2023/10/11 08:54:11;;;;;;;10.35;3.42;;;;;;;;;;4984884;28;20066;-79
2023/10/11 08:56:39;;;;;;;11.75;3.10;;;;;;;;;;4982823;28;20050;-78
2023/10/11 08:59:06;;;;;;;12.60;2.70;;;;;;;;;;4980923;28;20185;-78
2023/10/11 09:01:36;;;;;;;17.65;2.80;;;;;;;;;;4982713;28;20038;-78
2023/10/11 09:04:14;;;;;;;10.75;2.72;;;;;;;;;;4981293;28;20050;-78
2023/10/11 09:06:44;;;;;;;9.43;2.72;;;;;;;;;;4982869;28;20046;-77
2023/10/11 09:09:32;;;;;;;13.57;3.05;;;;;;;;;;4979916;28;20054;-78
2023/10/11 09:11:58;;;;;;;14.13;2.70;;;;;;;;;;4981273;28;20563;-78
2023/10/11 09:14:23;;;;;;;7.78;2.58;;;;;;;;;;4981730;28;20130;-79
2023/10/11 09:16:51;;;;;;;12.55;2.92;;;;;;;;;;4979837;28;20050;-78
2023/10/11 09:19:19;;;;;;;9.73;2.90;;;;;;;;;;4979678;28;20044;-77
2023/10/11 09:22:06;;;;;;;13.50;2.95;;;;;;;;;;4979551;28;20164;-79
2023/10/11 09:24:41;;;;;;;12.32;2.88;;;;;;;;;;4980607;28;20057;-79
2023/10/11 09:27:28;;;;;;;8.90;2.70;;;;;;;;;;4979897;28;20070;-78
2023/10/11 09:29:57;;;;;;;12.27;2.35;;;;;;;;;;4964059;28;20038;-79
2023/10/11 09:32:32;;;;;;;12.55;2.75;;;;;;;;;;4979267;28;20047;-78
2023/10/11 09:34:58;;;;;;;10.60;2.65;;;;;;;;;;4979760;28;20049;-78
2023/10/11 09:37:23;;;;;;;7.57;2.22;;;;;;;;;;4981319;28;20046;-78
2023/10/11 09:39:53;;;;;;;8.38;2.83;;;;;;;;;;4981336;28;20054;-81
2023/10/11 09:42:22;;;;;;;9.95;2.53;;;;;;;;;;4985050;28;20388;-80
2023/10/11 09:44:57;;;;;;;10.85;2.53;;;;;;;;;;4980858;28;20042;-78
2023/10/11 09:47:24;;;;;;;11.82;2.63;;;;;;;;;;4980113;28;20052;-80
2023/10/11 09:49:53;;;;;;;8.20;2.30;;;;;;;;;;4973699;28;20050;-78
2023/10/11 09:52:23;;;;;;;8.88;2.72;;;;;;;;;;4979757;28;20111;-78
2023/10/11 09:54:50;;;;;;;6.93;2.50;;;;;;;;;;4980453;28;20058;-78
2023/10/11 09:57:29;;;;;;;6.70;2.63;;;;;;;;;;4977844;28;20054;-77
2023/10/11 10:00:20;;;;;;;6.63;2.38;;;;;;;;;;4960404;28;20108;-78
2023/10/11 10:02:51;;;;;;;10.02;3.20;;;;;;;;;;4980702;28;20058;-83
2023/10/11 10:05:17;;;;;;;8.18;2.88;;;;;;;;;;4959984;28;20054;-77
2023/10/11 10:07:43;;;;;;;5.60;2.45;;;;;;;;;;4979757;28;20041;-77
2023/10/11 10:10:16;;;;;;;10.57;2.90;;;;;;;;;;4977847;28;20802;-78
2023/10/11 10:12:43;;;;;;;11.52;2.60;;;;;;;;;;4979314;28;20877;-77
2023/10/11 10:15:14;;;;;;;8.35;2.80;;;;;;;;;;4975806;28;20050;-77
2023/10/11 10:18:05;;;;;;;7.03;2.45;;;;;;;;;;4977372;28;20133;-78
2023/10/11 10:20:33;;;;;;;10.45;2.40;;;;;;;;;;4951305;28;20042;-78
2023/10/11 10:23:14;;;;;;;9.32;2.58;;;;;;;;;;4976778;28;20050;-78
2023/10/11 10:25:40;;;;;;;9.45;2.53;;;;;;;;;;4977823;28;20137;-78
2023/10/11 10:28:34;;;;;;;7.32;2.58;;;;;;;;;;4977969;28;20108;-78
2023/10/11 10:31:17;;;;;;;11.80;2.78;;;;;;;;;;4959703;28;20097;-77
2023/10/11 10:34:07;;;;;;;6.65;2.67;;;;;;;;;;4977899;28;20762;-77
2023/10/11 10:36:32;;;;;;;13.00;2.60;;;;;;;;;;4966089;28;20661;-77
2023/10/11 10:38:58;;;;;;;6.95;2.55;;;;;;;;;;4976078;28;20038;-77
2023/10/11 10:41:27;;;;;;;5.22;2.45;;;;;;;;;;4977869;28;20045;-78
2023/10/11 10:44:05;;;;;;;9.52;2.47;;;;;;;;;;4978577;28;20149;-78
2023/10/11 10:46:32;;;;;;;5.38;2.47;;;;;;;;;;4951250;28;20054;-77
2023/10/11 10:48:57;;;;;;;7.97;2.88;;;;;;;;;;4976208;28;20042;-78
2023/10/11 10:51:27;;;;;;;14.85;2.65;;;;;;;;;;4978265;28;20050;-78
2023/10/11 10:53:53;;;;;;;10.07;2.45;;;;;;;;;;4979736;28;20431;-78
2023/10/11 10:56:26;;;;;;;8.38;2.35;;;;;;;;;;4978663;28;20046;-78
2023/10/11 10:59:07;;;;;;;11.07;2.60;;;;;;;;;;4977091;28;20046;-78
2023/10/11 11:01:34;;;;;;;7.93;2.80;;;;;;;;;;4958336;28;20542;-79
2023/10/11 11:04:06;;;;;;;5.88;2.13;;;;;;;;;;4979024;28;20914;-79
2023/10/11 11:06:46;;;;;;;11.27;2.30;;;;;;;;;;4978383;28;20042;-79
2023/10/11 11:09:19;;;;;;;6.80;2.25;;;;;;;;;;4976664;28;20054;-80
2023/10/11 11:11:46;;;;;;;5.68;2.15;;;;;;;;;;4979463;28;20950;-80
2023/10/11 11:14:13;;;;;;;5.78;2.28;;;;;;;;;;4979623;28;20038;-79
2023/10/11 11:16:41;;;;;;;7.05;2.50;;;;;;;;;;4980137;28;20046;-80
2023/10/11 11:19:16;;;;;;;6.97;2.33;;;;;;;;;;4976774;28;20660;-79
2023/10/11 11:21:46;;;;;;;9.93;2.53;;;;;;;;;;4977955;28;20057;-80
2023/10/11 11:24:18;;;;;;;10.63;2.63;;;;;;;;;;4974282;28;20046;-77
2023/10/11 11:26:45;;;;;;;9.88;2.65;;;;;;;;;;4979268;28;20435;-79
2023/10/11 11:29:16;;;;;;;11.82;2.45;;;;;;;;;;4976071;28;20562;-77
2023/10/11 11:31:58;;;;;;;10.18;2.42;;;;;;;;;;4954528;28;20043;-78
2023/10/11 11:34:27;;;;;;;7.75;2.22;;;;;;;;;;4978223;28;20046;-77
2023/10/11 11:37:05;;;;;;;7.30;2.40;;;;;;;;;;4977838;28;20084;-78
2023/10/11 11:39:39;;;;;;;8.25;1.98;;;;;;;;;;4981958;28;20129;-79
2023/10/11 11:42:19;;;;;;;3.78;2.08;;;;;;;;;;4971465;28;20085;-78
2023/10/11 11:44:46;;;;;;;10.95;2.70;;;;;;;;;;4978090;28;20132;-80
2023/10/11 11:47:13;;;;;;;10.27;3.10;;;;;;;;;;4978480;28;20046;-80
2023/10/11 11:49:38;;;;;;;7.63;2.28;;;;;;;;;;4974301;28;20410;-77
2023/10/11 11:52:04;;;;;;;8.35;2.63;;;;;;;;;;4977243;28;20050;-78
2023/10/11 11:54:29;;;;;;;8.90;2.53;;;;;;;;;;4975227;28;20034;-78
2023/10/11 11:56:56;;;;;;;8.98;2.97;;;;;;;;;;4980436;28;20157;-79
2023/10/11 11:59:22;;;;;;;18.25;2.40;;;;;;;;;;4982719;28;20042;-80
2023/10/11 12:01:49;;;;;;;7.88;2.80;;;;;;;;;;4982859;28;20236;-79
2023/10/11 12:04:29;;;;;;;10.43;2.45;;;;;;;;;;4980610;28;20055;-81
2023/10/11 12:06:57;;;;;;;12.35;2.25;;;;;;;;;;4981355;28;20109;-79
2023/10/11 12:09:24;;;;;;;5.30;2.22;;;;;;;;;;4967116;28;20956;-79
2023/10/11 12:11:50;;;;;;;10.30;2.33;;;;;;;;;;4984458;28;20050;-79
2023/10/11 12:14:16;;;;;;;8.00;2.13;;;;;;;;;;4983395;28;20053;-79
2023/10/11 12:16:42;;;;;;;5.38;2.28;;;;;;;;;;4985481;28;20141;-80
2023/10/11 12:19:12;;;;;;;5.25;2.25;;;;;;;;;;4983103;28;20104;-79
2023/10/11 12:21:38;;;;;;;7.63;2.30;;;;;;;;;;4985470;28;20136;-80
2023/10/11 12:24:11;;;;;;;5.93;2.20;;;;;;;;;;4985483;28;20054;-80
2023/10/11 12:26:43;;;;;;;6.03;2.30;;;;;;;;;;4983048;28;20810;-79
2023/10/11 12:29:14;;;;;;;14.05;2.78;;;;;;;;;;4982758;28;20137;-80
2023/10/11 12:31:40;;;;;;;6.50;2.30;;;;;;;;;;4974275;28;20106;-80
2023/10/11 12:34:09;;;;;;;6.78;2.78;;;;;;;;;;4971346;28;20300;-80
2023/10/11 12:36:39;;;;;;;6.78;2.40;;;;;;;;;;4986133;28;20057;-79
2023/10/11 12:39:06;;;;;;;4.53;2.20;;;;;;;;;;4982434;28;20435;-79
2023/10/11 12:41:32;;;;;;;9.55;2.47;;;;;;;;;;4983126;28;20057;-79
2023/10/11 12:44:00;;;;;;;6.85;2.50;;;;;;;;;;4984740;28;20515;-80
2023/10/11 12:46:27;;;;;;;5.32;2.58;;;;;;;;;;4982424;28;20478;-80
2023/10/11 12:48:56;;;;;;;5.00;2.22;;;;;;;;;;4981498;28;20054;-79
2023/10/11 12:51:23;;;;;;;10.13;2.55;;;;;;;;;;4982825;28;20042;-79
2023/10/11 12:53:48;;;;;;;4.70;2.03;;;;;;;;;;4981199;28;20602;-79
2023/10/11 12:56:14;;;;;;;5.95;2.15;;;;;;;;;;4980658;28;20042;-79
2023/10/11 12:58:40;;;;;;;5.53;2.03;;;;;;;;;;4980820;28;21019;-79
2023/10/11 13:01:11;;;;;;;7.88;2.30;;;;;;;;;;4979126;28;20288;-79
2023/10/11 13:03:38;;;;;;;6.68;2.35;;;;;;;;;;4968572;28;20043;-78
2023/10/11 13:06:04;;;;;;;5.47;2.17;;;;;;;;;;4980961;28;20089;-78
2023/10/11 13:08:32;;;;;;;6.65;1.88;;;;;;;;;;4981233;28;20062;-79
2023/10/11 13:11:00;;;;;;;8.32;1.90;;;;;;;;;;4978146;28;20100;-78
2023/10/11 13:13:27;;;;;;;9.02;2.30;;;;;;;;;;4981101;28;20126;-77
2023/10/11 13:16:00;;;;;;;7.47;2.17;;;;;;;;;;4981699;28;20049;-77
2023/10/11 13:18:31;;;;;;;10.68;2.60;;;;;;;;;;4964067;28;20046;-78
2023/10/11 13:20:57;;;;;;;7.47;2.63;;;;;;;;;;4982839;28;20065;-78
2023/10/11 13:23:28;;;;;;;17.55;3.35;;;;;;;;;;4977925;28;20488;-77
2023/10/11 13:25:59;;;;;;;8.45;2.03;;;;;;;;;;4980705;28;20042;-76
2023/10/11 13:28:26;;;;;;;7.18;2.45;;;;;;;;;;4982886;28;20434;-77
2023/10/11 13:30:54;;;;;;;7.32;2.05;;;;;;;;;;4979908;28;20128;-77
2023/10/11 13:33:20;;;;;;;6.90;2.60;;;;;;;;;;4980698;28;20062;-79
2023/10/11 13:35:47;;;;;;;9.43;2.08;;;;;;;;;;4979684;28;20069;-78
2023/10/11 13:38:17;;;;;;;11.73;2.00;;;;;;;;;;4979590;28;20137;-78
2023/10/11 13:40:46;;;;;;;9.45;1.95;;;;;;;;;;4980606;28;20183;-79
2023/10/11 13:43:12;;;;;;;6.45;1.85;;;;;;;;;;4980036;28;20051;-78
2023/10/11 13:45:40;;;;;;;11.13;2.90;;;;;;;;;;4974688;28;20057;-78
2023/10/11 13:48:13;;;;;;;7.85;2.00;;;;;;;;;;4958395;28;20099;-77
2023/10/11 13:50:49;;;;;;;6.55;1.98;;;;;;;;;;4979962;28;20045;-78
2023/10/11 13:53:15;;;;;;;9.43;2.28;;;;;;;;;;4957551;28;20057;-81
2023/10/11 13:55:42;;;;;;;8.63;2.95;;;;;;;;;;4979788;28;20042;-79
2023/10/11 13:58:11;;;;;;;10.90;2.53;;;;;;;;;;4980222;28;20069;-78
2023/10/11 14:05:39;;;;;;;;;;;;;;;;;;4978510;28;20085;-78
2023/10/11 14:08:23;;;;;;;3.90;1.80;;;;;;;;;;4979977;28;19960;-80
2023/10/11 14:10:49;;;;;;;9.05;1.98;;;;;;;;;;4978148;28;20185;-81
2023/10/11 14:13:15;;;;;;;7.03;1.85;;;;;;;;;;4979436;28;20054;-77
2023/10/11 14:15:40;;;;;;;7.38;2.28;;;;;;;;;;4978252;28;20038;-78
2023/10/11 14:18:14;;;;;;;10.80;2.60;;;;;;;;;;4976167;28;20050;-79
2023/10/11 14:20:40;;;;;;;4.65;1.70;;;;;;;;;;4977179;28;20057;-79
2023/10/11 14:23:06;;;;;;;4.82;2.10;;;;;;;;;;4978439;28;20054;-79
2023/10/11 14:25:32;;;;;;;7.28;1.90;;;;;;;;;;4978376;28;20050;-78
2023/10/11 14:27:57;;;;;;;6.68;2.10;;;;;;;;;;4976426;28;20049;-78
2023/10/11 14:30:23;;;;;;;11.20;2.40;;;;;;;;;;4976429;28;20049;-80
2023/10/11 14:32:50;;;;;;;9.18;2.22;;;;;;;;;;4977596;28;20159;-77
2023/10/11 14:35:17;;;;;;;8.40;2.33;;;;;;;;;;4978288;28;20057;-80
2023/10/11 14:37:43;;;;;;;3.80;1.88;;;;;;;;;;4977508;28;20155;-78
2023/10/11 14:40:14;;;;;;;5.78;2.30;;;;;;;;;;4975341;28;20550;-79
2023/10/11 14:42:47;;;;;;;10.60;2.67;;;;;;;;;;4975146;28;20058;-78
2023/10/11 14:45:14;;;;;;;8.63;1.92;;;;;;;;;;4976446;28;20050;-77
2023/10/11 14:47:45;;;;;;;6.10;2.40;;;;;;;;;;4972023;28;20042;-77
2023/10/11 14:50:23;;;;;;;6.63;2.50;;;;;;;;;;4967578;28;20049;-76
2023/10/11 14:52:49;;;;;;;4.32;1.70;;;;;;;;;;4976310;28;20085;-76
2023/10/11 14:55:20;;;;;;;5.18;2.05;;;;;;;;;;4975901;28;20126;-76
2023/10/11 14:57:55;;;;;;;8.07;2.40;;;;;;;;;;4977403;28;20416;-76
2023/10/11 15:00:22;;;;;;;4.13;1.95;;;;;;;;;;4967500;28;20293;-76
2023/10/11 15:02:49;;;;;;;8.48;2.05;;;;;;;;;;4977532;28;20064;-77
2023/10/11 15:05:15;;;;;;;4.50;2.00;;;;;;;;;;4977069;28;20062;-77
2023/10/11 15:07:47;;;;;;;5.18;2.00;;;;;;;;;;4976588;28;20050;-77
2023/10/11 15:10:13;;;;;;;4.53;1.75;;;;;;;;;;4977262;28;20078;-77
2023/10/11 15:12:41;;;;;;;7.93;2.08;;;;;;;;;;4977985;28;20144;-75
2023/10/11 15:15:10;;;;;;;11.07;2.28;;;;;;;;;;4976778;28;20116;-76
2023/10/11 15:17:35;;;;;;;4.65;1.80;;;;;;;;;;4977608;28;20196;-77
2023/10/11 15:20:01;;;;;;;7.00;1.95;;;;;;;;;;4975818;28;20140;-77
2023/10/11 15:22:27;;;;;;;5.80;1.88;;;;;;;;;;4977262;28;20101;-77
2023/10/11 15:24:55;;;;;;;5.78;1.95;;;;;;;;;;4975760;28;20507;-77
2023/10/11 15:27:20;;;;;;;13.73;2.03;;;;;;;;;;4976780;28;20050;-78
2023/10/11 15:29:46;;;;;;;4.45;2.17;;;;;;;;;;4976407;28;20050;-78
2023/10/11 15:32:13;;;;;;;4.95;2.03;;;;;;;;;;4979867;28;20495;-78
2023/10/11 15:34:39;;;;;;;8.27;2.33;;;;;;;;;;4977488;28;20514;-76
2023/10/11 15:37:06;;;;;;;6.72;2.00;;;;;;;;;;4974871;28;20054;-76
2023/10/11 15:39:32;;;;;;;8.55;2.45;;;;;;;;;;4977235;28;20053;-77
2023/10/11 15:41:57;;;;;;;4.28;2.15;;;;;;;;;;4976308;28;20042;-77
2023/10/11 15:44:25;;;;;;;2.15;1.50;;;;;;;;;;4975987;28;20054;-78
2023/10/11 15:46:50;;;;;;;6.63;2.03;;;;;;;;;;4990941;28;20766;-78
2023/10/11 15:49:16;;;;;;;5.22;2.05;;;;;;;;;;4975485;28;20061;-77
2023/10/11 15:51:41;;;;;;;5.15;1.90;;;;;;;;;;4976801;28;20532;-78